createdAt,value
2023-02-25T00:09:57.660Z,8.16
2023-02-25T00:20:01.005Z,8.17
2023-02-25T00:30:05.731Z,8.21
2023-02-25T00:40:16.704Z,8.32
2023-02-25T00:50:19.890Z,8.43
2023-02-25T01:00:25.676Z,8.52
2023-02-25T01:10:28.940Z,8.53
2023-02-25T01:20:32.108Z,8.49
2023-02-25T01:30:38.480Z,8.43
2023-02-25T01:40:41.817Z,8.43
2023-02-25T01:50:52.059Z,8.31
2023-02-25T02:00:56.084Z,8.09
2023-02-25T02:10:59.391Z,7.61
2023-02-25T02:21:44.562Z,7.31
2023-02-25T02:32:10.768Z,7.30
2023-02-25T02:42:37.907Z,7.33
2023-02-25T02:52:46.873Z,7.29
2023-02-25T03:03:00.730Z,7.08
2023-02-25T03:13:04.819Z,7.00
2023-02-25T03:23:15.591Z,7.02
2023-02-25T03:33:33.248Z,6.90
2023-02-25T03:43:42.148Z,6.69
2023-02-25T03:53:45.581Z,6.53
2023-02-25T04:03:55.053Z,6.44
2023-02-25T04:13:59.038Z,6.46
2023-02-25T04:24:05.804Z,6.50
2023-02-25T04:34:08.964Z,6.38
2023-02-25T04:44:12.570Z,5.75
2023-02-25T04:54:15.957Z,5.16
2023-02-25T05:04:19.086Z,4.89
2023-02-25T05:14:22.373Z,4.45
2023-02-25T05:24:26.466Z,4.09
2023-02-25T05:34:30.670Z,3.93
2023-02-25T05:44:34.152Z,3.91
2023-02-25T05:54:37.282Z,3.85
2023-02-25T06:04:40.397Z,3.73
2023-02-25T06:14:43.555Z,3.75
2023-02-25T06:24:46.959Z,3.77
2023-02-25T06:34:50.060Z,3.84
2023-02-25T06:44:53.322Z,3.90
2023-02-25T06:54:56.512Z,3.90
2023-02-25T07:05:01.474Z,3.82
2023-02-25T07:15:05.566Z,3.83
2023-02-25T07:25:11.995Z,3.87
2023-02-25T07:35:15.364Z,3.75
2023-02-25T07:45:19.605Z,3.79
2023-02-25T07:55:23.939Z,3.89
2023-02-25T08:05:27.186Z,4.13
2023-02-25T08:15:30.444Z,4.47
2023-02-25T08:25:35.847Z,4.88
2023-02-25T08:35:39.210Z,5.12
2023-02-25T08:45:43.665Z,5.40
2023-02-25T08:55:47.530Z,5.83
2023-02-25T09:05:55.350Z,6.32
2023-02-25T09:16:03.642Z,6.81
2023-02-25T09:26:10.029Z,6.78
2023-02-25T09:36:17.385Z,6.53
2023-02-25T09:46:23.408Z,6.30
2023-02-25T09:56:27.751Z,6.67
2023-02-25T10:06:39.289Z,6.99
2023-02-25T10:17:09.114Z,7.53
2023-02-25T10:27:21.902Z,7.62
2023-02-25T10:37:34.146Z,7.62
2023-02-25T10:47:40.873Z,7.76
2023-02-25T10:57:45.404Z,8.09
2023-02-25T11:07:50.381Z,8.13
2023-02-25T11:18:02.754Z,8.09
2023-02-25T11:28:16.497Z,7.96
2023-02-25T11:38:28.413Z,7.83
2023-02-25T11:48:54.781Z,8.21
2023-02-25T11:59:29.318Z,8.21
2023-02-25T12:10:06.265Z,7.73
2023-02-25T12:20:51.307Z,7.25
2023-02-25T12:31:20.436Z,6.95
2023-02-25T12:41:54.778Z,6.74
2023-02-25T12:52:17.716Z,6.65
2023-02-25T13:02:42.052Z,6.80
2023-02-25T13:12:58.923Z,6.86
2023-02-25T13:23:17.699Z,6.93
2023-02-25T13:33:59.879Z,7.04
2023-02-25T13:44:15.239Z,6.91
2023-02-25T13:54:37.637Z,6.83
2023-02-25T14:05:04.663Z,6.37
2023-02-25T14:15:41.130Z,5.38
2023-02-25T14:26:02.880Z,4.25
2023-02-25T14:36:20.627Z,3.94
2023-02-25T14:46:43.148Z,3.76
2023-02-25T14:56:49.085Z,3.64
2023-02-25T15:07:20.805Z,3.48
2023-02-25T15:17:33.209Z,3.39
2023-02-25T15:27:36.482Z,3.39
2023-02-25T15:37:54.771Z,3.22
2023-02-25T15:48:28.579Z,3.06
2023-02-25T15:58:31.990Z,2.88
2023-02-25T16:08:47.477Z,2.78
2023-02-25T16:18:53.287Z,2.76
2023-02-25T16:29:38.625Z,2.58
2023-02-25T16:39:43.500Z,2.36
2023-02-25T16:49:47.811Z,2.25
2023-02-25T17:00:07.062Z,2.15
2023-02-25T17:10:26.001Z,2.15
2023-02-25T17:20:29.666Z,2.23
2023-02-25T17:30:34.084Z,2.31
2023-02-25T17:40:37.506Z,2.44
2023-02-25T17:50:40.807Z,2.54
2023-02-25T18:00:59.003Z,2.53
2023-02-25T18:11:37.089Z,2.43
2023-02-25T18:21:42.880Z,2.41
2023-02-25T18:31:46.130Z,2.35
2023-02-25T18:41:52.353Z,2.27
2023-02-25T18:51:55.686Z,2.27
2023-02-25T19:02:02.192Z,2.37
2023-02-25T19:12:05.947Z,2.50
2023-02-25T19:22:16.502Z,2.52
2023-02-25T19:32:21.659Z,2.44
2023-02-25T19:42:24.819Z,2.40
2023-02-25T19:52:29.617Z,2.44
2023-02-25T20:02:32.913Z,2.41
2023-02-25T20:12:37.208Z,2.37
2023-02-25T20:22:43.324Z,2.40
2023-02-25T20:32:46.876Z,2.35
2023-02-25T20:42:50.148Z,2.24
2023-02-25T20:52:53.466Z,2.19
2023-02-25T21:03:00.713Z,2.16
2023-02-25T21:13:03.989Z,2.15
2023-02-25T21:23:11.201Z,2.13
2023-02-25T21:33:15.232Z,2.10
2023-02-25T21:43:18.553Z,2.11
2023-02-25T21:53:23.480Z,2.12
2023-02-25T22:03:28.041Z,2.12
2023-02-25T22:13:35.342Z,2.15
2023-02-25T22:23:40.200Z,2.21
2023-02-25T22:33:45.345Z,2.25
2023-02-25T22:43:52.098Z,2.20
2023-02-25T22:53:56.078Z,2.24
2023-02-25T23:04:00.355Z,2.32
2023-02-25T23:14:04.050Z,2.38
2023-02-25T23:24:16.520Z,2.32
2023-02-25T23:34:21.782Z,2.30
2023-02-25T23:44:25.409Z,2.34
2023-02-25T23:54:28.714Z,2.30
